Time;durP1;ratioP1;P1;durP2;ratioP2;P2;SDS_P1;SDS_P2;PMS_P1;PMS_P2;Temp;Humidity;BMP_temperature;BMP_pressure;BME280_temperature;BME280_humidity;BME280_pressure;Samples;Min_cycle;Max_cycle;Signal;HPM_P1;HPM_P2
2022/05/25 00:00:47;;;;;;;;;1.33;0.00;;;;;16.43;52.80;100920.88;5073526;28;45449;-70
2022/05/25 00:03:13;;;;;;;;;0.00;0.00;;;;;16.59;53.15;100941.63;5073155;28;45539;-62
2022/05/25 00:05:38;;;;;;;;;4.33;1.00;;;;;16.53;53.38;100935.31;5073708;28;45463;-62
2022/05/25 00:08:04;;;;;;;;;3.67;1.00;;;;;16.45;53.07;100913.72;5072935;28;46008;-62
2022/05/25 00:10:30;;;;;;;;;1.00;1.00;;;;;16.44;53.45;100941.56;5072583;28;45674;-62
2022/05/25 00:12:55;;;;;;;;;0.00;0.00;;;;;16.47;53.12;100933.50;5074361;28;45311;-63
2022/05/25 00:15:21;;;;;;;;;0.67;0.67;;;;;16.51;53.41;100931.72;5073189;28;45597;-63
2022/05/25 00:17:47;;;;;;;;;0.67;0.67;;;;;16.49;53.45;100934.41;5071942;28;46139;-62
2022/05/25 00:20:13;;;;;;;;;1.00;1.00;;;;;16.50;53.43;100938.91;5071550;28;45813;-63
2022/05/25 00:22:45;;;;;;;;;0.67;0.67;;;;;16.51;53.58;100940.69;5071555;28;45341;-62
2022/05/25 00:25:15;;;;;;;;;0.67;0.67;;;;;16.50;53.35;100936.22;5072982;27;45743;-61
2022/05/25 00:27:41;;;;;;;;;1.33;0.00;;;;;16.49;53.97;100936.22;5067285;28;46041;-63
2022/05/25 00:30:19;;;;;;;;;0.00;0.00;;;;;16.49;53.45;100937.09;5135814;27;45614;-61
2022/05/25 00:32:45;;;;;;;;;1.33;0.67;;;;;16.45;53.74;100931.69;5121321;27;45487;-61
2022/05/25 00:35:14;;;;;;;;;0.00;0.00;;;;;16.42;53.32;100939.78;5141173;27;45132;-64
2022/05/25 00:37:41;;;;;;;;;0.33;0.00;;;;;16.38;53.59;100941.53;5133616;27;45029;-61
2022/05/25 00:40:08;;;;;;;;;0.00;0.00;;;;;16.38;53.28;100942.44;5135731;27;45682;-61
2022/05/25 00:42:37;;;;;;;;;0.67;0.67;;;;;16.35;53.65;100941.50;5128499;27;45198;-61
2022/05/25 00:45:04;;;;;;;;;0.67;0.33;;;;;16.34;53.33;100948.69;5129459;27;45284;-62
2022/05/25 00:47:31;;;;;;;;;1.33;0.00;;;;;16.29;53.74;100946.88;5129684;27;45029;-61
2022/05/25 00:49:56;;;;;;;;;0.00;0.00;;;;;16.18;53.95;100938.72;5129097;27;45780;-61
2022/05/25 00:52:23;;;;;;;;;0.67;0.67;;;;;16.25;53.76;100953.13;5131647;27;45194;-61
2022/05/25 00:54:52;;;;;;;;;0.00;0.00;;;;;16.26;54.03;100963.03;5132924;27;45157;-64
2022/05/25 00:57:22;;;;;;;;;0.67;0.00;;;;;16.30;54.02;100955.00;5130442;27;45392;-63
2022/05/25 01:00:04;;;;;;;;;0.00;0.00;;;;;16.33;53.56;100955.00;5136592;27;45618;-66
2022/05/25 01:02:33;;;;;;;;;0.33;0.33;;;;;16.30;53.59;100960.38;5129639;27;45199;-63
2022/05/25 01:04:58;;;;;;;;;0.00;0.00;;;;;16.28;53.79;100967.53;5145159;27;45169;-61
2022/05/25 01:07:57;;;;;;;;;0.00;0.00;;;;;16.27;54.01;100963.06;5148301;27;45169;-61
2022/05/25 01:10:34;;;;;;;;;1.33;0.00;;;;;16.29;54.10;100969.34;5138889;27;45323;-62
2022/05/25 01:13:15;;;;;;;;;0.33;0.00;;;;;16.25;54.14;100972.00;5142439;27;45080;-63
2022/05/25 01:16:00;;;;;;;;;4.00;1.00;;;;;16.29;53.69;100977.44;5145231;27;45169;-67
2022/05/25 01:18:38;;;;;;;;;0.00;0.00;;;;;16.31;53.46;100980.16;5135149;27;45208;-63
2022/05/25 01:21:12;;;;;;;;;0.00;0.00;;;;;16.31;53.63;100982.84;5138536;27;45337;-61
2022/05/25 01:23:58;;;;;;;;;0.00;0.00;;;;;16.34;53.25;100983.75;5137583;27;45167;-61
2022/05/25 01:27:01;;;;;;;;;1.67;0.33;;;;;16.37;53.15;100977.50;5131457;27;45031;-63
2022/05/25 01:29:49;;;;;;;;;0.00;0.00;;;;;16.38;53.48;100974.81;5132545;27;45911;-65
2022/05/25 01:32:25;;;;;;;;;0.00;0.00;;;;;16.36;53.74;100970.28;5139020;27;45996;-66
2022/05/25 01:35:29;;;;;;;;;1.00;0.00;;;;;16.31;53.84;100981.03;5127790;27;45424;-62
2022/05/25 01:38:00;;;;;;;;;0.00;0.00;;;;;16.27;53.51;100978.31;5132748;27;45086;-70
2022/05/25 01:40:42;;;;;;;;;0.00;0.00;;;;;16.22;53.85;100983.69;5123217;27;45229;-62
2022/05/25 01:43:17;;;;;;;;;0.00;0.00;;;;;16.20;54.04;100993.53;5114649;27;45304;-62
2022/05/25 01:45:52;;;;;;;;;0.00;0.00;;;;;15.40;53.92;100879.75;5113825;27;45280;-61
2022/05/25 01:48:20;;;;;;;;;0.67;0.67;;;;;15.96;54.16;100959.25;5112150;27;45440;-67
2022/05/25 01:50:50;;;;;;;;;0.00;0.00;;;;;15.94;54.26;100955.63;5115556;27;46537;-64
2022/05/25 01:53:18;;;;;;;;;0.00;0.00;;;;;16.14;54.42;100991.72;5120194;27;46078;-62
2022/05/25 01:55:54;;;;;;;;;0.00;0.00;;;;;16.16;54.69;100994.41;5122811;27;44895;-63
2022/05/25 01:58:22;;;;;;;;;1.00;1.00;;;;;16.09;54.78;100992.59;5116328;27;45777;-60
2022/05/25 02:00:54;;;;;;;;;2.33;0.33;;;;;16.08;54.99;101001.53;5132093;27;45154;-71
2022/05/25 02:06:32;;;;;;;;;0.00;0.00;;;;;16.06;54.91;100997.94;5132107;27;44926;-62
2022/05/25 02:09:35;;;;;;;;;0.67;0.67;;;;;16.02;54.80;100997.91;5115542;27;45867;-61
2022/05/25 02:12:23;;;;;;;;;1.33;0.00;;;;;15.99;54.85;101008.66;5126665;27;44924;-64
2022/05/25 02:15:11;;;;;;;;;0.33;0.00;;;;;15.99;55.44;100999.69;5123493;27;45258;-61
2022/05/25 02:18:04;;;;;;;;;1.33;1.33;;;;;15.97;55.38;101002.38;5116008;27;45293;-62
2022/05/25 02:20:43;;;;;;;;;0.67;0.67;;;;;15.77;55.08;100982.41;5124506;27;45187;-63
2022/05/25 02:23:19;;;;;;;;;0.00;0.00;;;;;15.96;55.24;101008.63;5117735;27;45126;-61
2022/05/25 02:25:50;;;;;;;;;0.67;0.67;;;;;15.93;55.74;101011.31;5114677;27;45273;-62
2022/05/25 02:28:18;;;;;;;;;0.00;0.00;;;;;15.78;55.61;101005.78;5124125;27;45180;-62
2022/05/25 02:30:49;;;;;;;;;0.00;0.00;;;;;15.82;56.10;101018.38;5120105;27;45230;-61
2022/05/25 02:33:22;;;;;;;;;0.00;0.00;;;;;15.83;56.35;101006.72;5114087;27;45066;-62
2022/05/25 02:35:49;;;;;;;;;0.00;0.00;;;;;15.76;55.98;100996.81;5116833;27;45216;-62
2022/05/25 02:38:15;;;;;;;;;0.67;0.67;;;;;15.69;56.05;100989.50;5121100;27;45095;-60
2022/05/25 02:40:41;;;;;;;;;0.33;0.33;;;;;15.83;56.27;101009.41;5114685;27;45204;-63
2022/05/25 02:43:08;;;;;;;;;0.33;0.33;;;;;15.83;56.48;101009.41;5134961;27;44952;-61
2022/05/25 02:45:35;;;;;;;;;0.33;0.33;;;;;15.77;55.98;101014.75;5117542;27;45125;-62
2022/05/25 02:48:01;;;;;;;;;0.67;0.67;;;;;15.84;56.27;101027.41;5118901;27;44972;-61
2022/05/25 02:50:26;;;;;;;;;0.00;0.00;;;;;15.69;56.18;101008.34;5115923;27;45130;-63
2022/05/25 02:52:52;;;;;;;;;2.33;1.00;;;;;15.51;56.83;100988.44;5118369;27;45347;-62
2022/05/25 02:55:17;;;;;;;;;1.33;0.67;;;;;15.69;56.93;101028.13;5122739;27;45571;-63
2022/05/25 02:57:42;;;;;;;;;1.00;0.67;;;;;15.66;57.25;101031.69;5123038;27;45258;-63
2022/05/25 03:00:10;;;;;;;;;3.67;3.67;;;;;15.68;56.79;101034.41;5117076;27;45079;-62
2022/05/25 03:02:36;;;;;;;;;1.67;1.67;;;;;15.68;56.74;101041.59;5118156;27;45292;-62
2022/05/25 03:05:04;;;;;;;;;0.67;0.67;;;;;15.57;56.97;101025.28;5118231;27;45061;-62
2022/05/25 03:07:29;;;;;;;;;2.67;1.00;;;;;15.26;57.36;100965.72;5125354;27;45028;-67
2022/05/25 03:09:55;;;;;;;;;1.00;1.00;;;;;15.62;56.98;101037.00;5127396;27;45042;-66
2022/05/25 03:12:20;;;;;;;;;2.00;0.67;;;;;15.66;56.92;101044.25;5113211;27;44905;-62
2022/05/25 03:14:46;;;;;;;;;2.00;1.33;;;;;15.51;57.07;101015.38;5122501;27;45036;-65
2022/05/25 03:17:15;;;;;;;;;2.00;1.67;;;;;15.65;57.21;101037.94;5114276;27;45048;-62
2022/05/25 03:19:42;;;;;;;;;1.00;1.00;;;;;15.70;57.05;101040.69;5115550;27;45300;-63
2022/05/25 03:22:08;;;;;;;;;2.00;2.00;;;;;15.74;57.26;101041.63;5107848;27;45444;-61
2022/05/25 03:24:34;;;;;;;;;0.33;0.33;;;;;15.70;57.36;101039.78;5111935;27;45560;-68
2022/05/25 03:26:59;;;;;;;;;0.67;0.67;;;;;15.83;56.88;101066.00;5127175;27;45050;-61
2022/05/25 03:29:26;;;;;;;;;1.33;1.33;;;;;15.73;56.98;101056.00;5102793;27;45107;-62
2022/05/25 03:31:52;;;;;;;;;0.33;0.33;;;;;15.75;56.98;101073.97;5121148;27;45080;-65
2022/05/25 03:34:20;;;;;;;;;0.67;0.67;;;;;15.72;57.35;101083.81;5118336;27;45219;-64
2022/05/25 03:36:45;;;;;;;;;1.00;1.00;;;;;15.58;57.52;101072.91;5113966;27;45154;-66
2022/05/25 03:39:11;;;;;;;;;2.00;1.00;;;;;15.63;57.54;101077.44;5121017;27;45219;-63
2022/05/25 03:41:36;;;;;;;;;0.33;0.33;;;;;15.52;57.65;101059.34;5112678;27;45167;-63
2022/05/25 03:44:02;;;;;;;;;0.33;0.33;;;;;15.71;57.59;101084.72;5118858;27;46151;-65
2022/05/25 03:46:27;;;;;;;;;1.33;1.33;;;;;15.67;57.43;101089.13;5118065;27;45116;-62
2022/05/25 03:48:53;;;;;;;;;2.00;2.00;;;;;15.65;57.24;101091.81;5122400;27;45210;-62
2022/05/25 03:51:18;;;;;;;;;1.33;1.33;;;;;15.74;57.41;101106.28;5119609;27;45116;-62
2022/05/25 03:53:43;;;;;;;;;0.67;0.67;;;;;15.74;57.48;101114.34;5127403;27;45705;-63
2022/05/25 03:56:09;;;;;;;;;2.00;0.00;;;;;15.74;57.71;101111.66;5113570;27;45566;-63
2022/05/25 03:58:34;;;;;;;;;2.33;2.33;;;;;15.73;57.94;101112.56;5119684;27;45255;-62
2022/05/25 04:00:59;;;;;;;;;1.00;1.00;;;;;15.77;58.05;101114.44;5115095;27;46875;-62
2022/05/25 04:03:25;;;;;;;;;3.33;1.67;;;;;15.35;58.12;101043.91;5109735;27;45675;-63
2022/05/25 04:05:50;;;;;;;;;0.67;0.67;;;;;15.86;57.32;101117.22;5117708;27;45308;-65
2022/05/25 04:08:16;;;;;;;;;1.00;1.00;;;;;15.80;57.10;101098.28;5120914;27;45208;-61
2022/05/25 04:10:41;;;;;;;;;3.00;2.33;;;;;15.76;57.40;101091.97;5113152;27;45060;-61
2022/05/25 04:13:06;;;;;;;;;1.33;1.33;;;;;15.86;57.06;101111.84;5112493;27;46230;-63
2022/05/25 04:15:33;;;;;;;;;3.33;3.33;;;;;15.91;57.00;101110.09;5113710;27;45384;-62
2022/05/25 04:17:59;;;;;;;;;10.00;4.33;;;;;15.91;57.54;101126.25;5130975;27;44938;-63
2022/05/25 04:20:26;;;;;;;;;0.67;0.67;;;;;15.93;56.89;101116.41;5114101;27;45346;-69
2022/05/25 04:22:52;;;;;;;;;2.00;2.00;;;;;15.92;57.02;101121.75;5112216;27;45709;-62
2022/05/25 04:25:21;;;;;;;;;4.00;1.67;;;;;15.94;56.87;101120.91;5110882;27;45011;-68
2022/05/25 04:27:48;;;;;;;;;2.33;2.00;;;;;15.91;56.84;101128.97;5129043;27;45139;-63
2022/05/25 04:30:17;;;;;;;;;2.67;2.67;;;;;15.86;56.89;101125.31;5119328;27;45348;-62
2022/05/25 04:32:43;;;;;;;;;0.67;0.67;;;;;15.79;56.53;101128.84;5110354;27;45203;-63
2022/05/25 04:35:11;;;;;;;;;1.00;1.00;;;;;15.76;56.75;101135.09;5113434;27;46086;-63
2022/05/25 04:37:48;;;;;;;;;1.00;1.00;;;;;15.75;56.75;101137.72;5100214;27;45182;-64
2022/05/25 04:40:16;;;;;;;;;1.67;1.33;;;;;15.53;56.52;101097.06;5112977;27;45167;-76
2022/05/25 04:42:41;;;;;;;;;3.67;1.67;;;;;15.79;56.71;101142.31;5120094;27;45948;-62
2022/05/25 04:45:08;;;;;;;;;4.33;4.00;;;;;15.60;56.29;101111.53;5120920;27;45490;-62
2022/05/25 04:47:34;;;;;;;;;4.00;2.67;;;;;15.86;56.49;101148.66;5107998;27;45032;-62
2022/05/25 04:50:06;;;;;;;;;3.67;3.00;;;;;15.65;56.30;101125.94;5121782;27;45145;-64
2022/05/25 04:52:35;;;;;;;;;3.00;3.00;;;;;15.87;56.44;101155.84;5114523;27;45484;-62
2022/05/25 04:55:01;;;;;;;;;3.67;3.67;;;;;15.77;55.76;101136.91;5116139;27;46440;-62
2022/05/25 04:57:27;;;;;;;;;2.67;2.67;;;;;15.88;55.98;101155.88;5096483;27;45261;-66
2022/05/25 05:00:01;;;;;;;;;6.67;5.33;;;;;15.85;55.76;101155.81;5116930;27;45228;-64
2022/05/25 05:02:27;;;;;;;;;3.00;2.00;;;;;15.39;55.70;101093.31;5109685;27;45815;-62
2022/05/25 05:04:53;;;;;;;;;3.67;3.67;;;;;15.78;55.97;101172.81;5119586;27;45206;-62
2022/05/25 05:07:18;;;;;;;;;3.67;3.67;;;;;15.75;55.91;101168.25;5118403;27;45027;-63
2022/05/25 05:09:45;;;;;;;;;2.67;2.67;;;;;15.66;55.99;101146.63;5117762;27;45412;-62
2022/05/25 05:12:13;;;;;;;;;2.00;2.00;;;;;15.72;55.20;101153.84;5109765;27;45793;-62
2022/05/25 05:14:39;;;;;;;;;3.33;3.33;;;;;15.50;55.68;101126.66;5120898;27;45134;-63
2022/05/25 05:17:07;;;;;;;;;4.67;3.00;;;;;15.80;55.47;101166.53;5106330;27;45415;-61
2022/05/25 05:19:33;;;;;;;;;6.67;3.67;;;;;15.84;55.30;101181.88;5105571;27;45546;-61
2022/05/25 05:21:58;;;;;;;;;5.33;1.67;;;;;15.83;54.72;101160.31;5124017;27;45472;-61
2022/05/25 05:24:25;;;;;;;;;4.33;4.33;;;;;15.44;55.37;101084.41;5113894;27;45476;-63
2022/05/25 05:26:50;;;;;;;;;1.67;1.67;;;;;16.11;54.68;101190.25;5108099;27;45566;-61
2022/05/25 05:29:16;;;;;;;;;1.33;1.33;;;;;15.56;54.40;101089.03;5105469;27;45255;-63
2022/05/25 05:31:41;;;;;;;;;3.67;2.33;;;;;16.05;54.32;101174.91;5104519;27;46135;-63
2022/05/25 05:34:07;;;;;;;;;2.67;2.67;;;;;16.17;54.77;101190.34;5128869;27;45152;-67
2022/05/25 05:36:42;;;;;;;;;1.33;1.33;;;;;16.12;54.16;101195.66;5134868;27;45052;-65
2022/05/25 05:39:10;;;;;;;;;1.00;1.00;;;;;16.10;54.27;101185.75;5136026;27;45091;-62
2022/05/25 05:41:39;;;;;;;;;2.00;0.67;;;;;16.08;54.50;101182.13;5123687;27;45815;-62
2022/05/25 05:44:08;;;;;;;;;2.00;2.00;;;;;16.10;54.60;101174.97;5115782;27;45127;-62
2022/05/25 05:46:36;;;;;;;;;3.67;2.67;;;;;16.04;54.51;101159.63;5129155;27;45222;-61
2022/05/25 05:49:04;;;;;;;;;5.67;2.67;;;;;16.17;54.43;101169.66;5135133;27;45205;-63
2022/05/25 05:51:30;;;;;;;;;3.33;2.33;;;;;15.90;54.30;101116.34;5123240;27;45767;-63
2022/05/25 05:53:56;;;;;;;;;4.67;2.67;;;;;16.10;54.88;101169.56;5114320;27;45215;-62
2022/05/25 05:56:21;;;;;;;;;1.67;1.67;;;;;16.07;54.44;101170.47;5114898;27;45051;-62
2022/05/25 05:58:47;;;;;;;;;1.00;1.00;;;;;16.13;54.22;101164.22;5115238;27;44985;-63
2022/05/25 06:01:12;;;;;;;;;1.67;1.67;;;;;16.11;54.00;101157.91;5123238;27;45629;-62
2022/05/25 06:03:37;;;;;;;;;2.33;2.33;;;;;16.10;54.08;101154.31;5116716;27;46492;-62
2022/05/25 06:06:03;;;;;;;;;4.67;2.67;;;;;16.24;54.15;101175.13;5114518;27;45290;-62
2022/05/25 06:08:29;;;;;;;;;3.00;3.00;;;;;16.21;53.83;101187.66;5114829;27;45032;-67
2022/05/25 06:10:56;;;;;;;;;1.00;1.00;;;;;16.05;53.00;101174.91;5115137;27;45600;-65
2022/05/25 06:13:21;;;;;;;;;3.33;2.00;;;;;15.87;53.60;101156.75;5124167;27;45150;-64
2022/05/25 06:21:19;;;;;;;;;1.33;1.33;;;;;16.27;52.97;101207.47;5118708;27;45405;-64
2022/05/25 06:23:44;;;;;;;;;2.00;2.00;;;;;16.21;53.16;101202.94;5114015;27;45321;-65
2022/05/25 06:26:10;;;;;;;;;3.00;2.33;;;;;16.26;52.71;101205.69;5121955;27;45262;-64
2022/05/25 06:28:35;;;;;;;;;5.00;3.67;;;;;16.33;52.97;101213.88;5117153;27;45737;-64
2022/05/25 06:31:00;;;;;;;;;2.67;1.67;;;;;16.01;53.40;101173.97;5101498;27;46269;-64
2022/05/25 06:33:26;;;;;;;;;3.67;2.67;;;;;16.09;53.17;101184.84;5113796;27;45496;-64
2022/05/25 06:35:51;;;;;;;;;5.67;3.33;;;;;16.26;53.04;101222.75;5117829;27;45434;-64
2022/05/25 06:38:17;;;;;;;;;0.67;0.67;;;;;16.20;51.85;101234.41;5100221;27;45197;-65
2022/05/25 06:40:42;;;;;;;;;4.00;3.67;;;;;16.30;51.99;101231.78;5111946;27;45487;-65
2022/05/25 06:43:07;;;;;;;;;14.25;10.00;;;;;16.42;51.83;101233.72;5112117;27;45239;-67
2022/05/25 06:45:33;;;;;;;;;5.00;3.00;;;;;16.35;52.09;101220.16;5117907;27;45394;-65
2022/05/25 06:47:58;;;;;;;;;4.33;3.33;;;;;16.42;51.90;101233.72;5114178;27;45059;-68
2022/05/25 06:50:25;;;;;;;;;3.67;3.67;;;;;16.58;51.78;101249.13;5111902;27;45577;-66
2022/05/25 06:52:51;;;;;;;;;4.00;2.67;;;;;16.53;51.34;101237.41;5114691;27;44962;-68
2022/05/25 06:55:17;;;;;;;;;6.00;4.00;;;;;16.65;51.12;101244.75;5112269;27;45294;-65
2022/05/25 06:57:42;;;;;;;;;5.67;2.67;;;;;16.52;50.93;101208.66;5120996;27;45213;-64
2022/05/25 07:00:08;;;;;;;;;7.00;7.00;;;;;16.66;50.76;101220.44;5130256;27;45143;-65
2022/05/25 07:02:33;;;;;;;;;5.33;3.67;;;;;16.68;50.01;101224.09;5102932;27;45432;-65
2022/05/25 07:04:59;;;;;;;;;1.67;1.67;;;;;16.58;49.29;101185.31;5093903;27;45741;-69
2022/05/25 07:07:24;;;;;;;;;7.33;5.00;;;;;17.10;48.84;101252.34;5101839;27;45389;-64
2022/05/25 07:09:50;;;;;;;;;10.50;6.50;;;;;17.08;48.53;101243.31;5095511;27;45515;-65
2022/05/25 07:12:16;;;;;;;;;5.67;3.00;;;;;17.15;48.92;101254.19;5102090;27;45521;-64
2022/05/25 07:14:41;;;;;;;;;5.00;5.00;;;;;17.13;48.96;101235.25;5101274;27;45523;-64
2022/05/25 07:17:07;;;;;;;;;4.67;3.33;;;;;17.25;47.97;101253.34;5113112;27;45317;-67
2022/05/25 07:19:33;;;;;;;;;1.00;1.00;;;;;17.27;46.58;101268.69;5116040;27;45927;-68
2022/05/25 07:21:59;;;;;;;;;2.33;1.67;;;;;17.26;46.27;101268.66;5095930;27;45512;-64
2022/05/25 07:24:24;;;;;;;;;0.33;0.33;;;;;17.23;46.60;101265.94;5096877;27;46837;-65
2022/05/25 07:26:50;;;;;;;;;4.00;3.00;;;;;17.32;47.23;101271.38;5103521;27;45715;-64
2022/05/25 07:29:15;;;;;;;;;1.67;1.67;;;;;17.31;47.25;101265.09;5094134;27;46346;-62
2022/05/25 07:31:52;;;;;;;;;3.00;3.00;;;;;17.36;46.74;101253.44;5096009;27;45609;-64
2022/05/25 07:34:24;;;;;;;;;1.00;1.00;;;;;17.59;46.61;101278.78;5100048;27;45402;-64
2022/05/25 07:37:15;;;;;;;;;1.00;1.00;;;;;17.69;45.79;101287.84;5116922;27;45623;-65
2022/05/25 07:39:47;;;;;;;;;1.00;1.00;;;;;17.08;45.87;101183.94;5107795;27;45501;-66
2022/05/25 07:42:12;;;;;;;;;0.00;0.00;;;;;17.75;45.30;101295.06;5100342;27;45491;-64
2022/05/25 07:44:57;;;;;;;;;2.33;1.00;;;;;17.68;45.56;101277.91;5093984;27;45924;-65
2022/05/25 07:47:23;;;;;;;;;1.00;1.00;;;;;17.83;45.60;101299.63;5096664;27;45551;-63
2022/05/25 07:49:49;;;;;;;;;3.67;1.67;;;;;17.75;45.35;101270.75;5098715;27;45720;-66
2022/05/25 07:52:15;;;;;;;;;3.00;2.67;;;;;17.80;45.60;101280.72;5094953;27;45447;-65
2022/05/25 07:54:44;;;;;;;;;1.00;1.00;;;;;17.88;45.48;101288.88;5095172;27;45413;-64
2022/05/25 07:57:10;;;;;;;;;3.67;2.00;;;;;17.90;45.41;101294.28;5095289;27;45371;-67
2022/05/25 07:59:36;;;;;;;;;2.00;2.00;;;;;17.68;45.75;101253.59;5096346;27;46234;-64
2022/05/25 08:07:38;;;;;;;;;3.33;0.67;;;;;18.14;44.27;101302.50;5108690;27;45619;-68
2022/05/25 08:10:09;;;;;;;;;1.33;0.00;;;;;18.20;43.63;101310.66;5114712;27;46250;-64
2022/05/25 08:12:36;;;;;;;;;0.67;0.67;;;;;18.19;43.37;101310.66;5114335;27;45456;-64
2022/05/25 08:15:03;;;;;;;;;0.00;0.00;;;;;18.11;43.11;101298.91;5114653;27;45362;-64
2022/05/25 08:17:28;;;;;;;;;0.33;0.33;;;;;18.19;43.45;101310.66;5114544;27;45397;-68
2022/05/25 08:19:53;;;;;;;;;5.33;1.00;;;;;18.27;42.55;101303.47;5096310;27;45551;-72
2022/05/25 08:22:19;;;;;;;;;1.67;0.67;;;;;18.28;42.60;101302.56;5100265;27;45372;-65
2022/05/25 08:24:44;;;;;;;;;1.00;1.00;;;;;18.38;42.37;101311.63;5114487;27;45448;-66
2022/05/25 08:27:09;;;;;;;;;0.00;0.00;;;;;18.42;42.66;101310.72;5114236;27;45487;-65
2022/05/25 08:29:35;;;;;;;;;2.67;1.00;;;;;18.39;42.92;101298.06;5104263;27;46107;-64
2022/05/25 08:32:00;;;;;;;;;1.00;1.00;;;;;18.45;42.57;101304.44;5095490;27;45461;-65
2022/05/25 08:34:27;;;;;;;;;3.33;0.00;;;;;18.46;41.97;101298.09;5095046;27;45302;-68
2022/05/25 08:36:53;;;;;;;;;0.00;0.00;;;;;18.28;41.61;101253.88;5102818;27;45593;-65
2022/05/25 08:39:19;;;;;;;;;0.00;0.00;;;;;18.70;41.97;101306.28;5095203;27;45980;-65
2022/05/25 08:41:45;;;;;;;;;1.00;1.00;;;;;18.49;41.92;101271.94;5094546;27;45393;-64
2022/05/25 08:44:12;;;;;;;;;0.33;0.33;;;;;18.80;41.81;101304.50;5094442;27;45374;-64
2022/05/25 08:46:38;;;;;;;;;2.00;0.67;;;;;18.79;41.20;101299.97;5094784;27;45444;-65
2022/05/25 08:49:12;;;;;;;;;1.00;0.00;;;;;18.89;40.16;101306.34;5095079;27;45993;-65
2022/05/25 08:51:42;;;;;;;;;3.00;1.00;;;;;18.93;39.56;101313.56;5117340;27;45405;-64
2022/05/25 08:54:09;;;;;;;;;2.00;1.00;;;;;18.65;39.58;101255.75;5118181;27;45558;-63
2022/05/25 08:56:46;;;;;;;;;1.00;1.00;;;;;19.04;39.64;101316.28;5116191;27;45498;-70
2022/05/25 08:59:28;;;;;;;;;1.00;0.00;;;;;18.98;39.87;101311.75;5114479;27;46160;-70
2022/05/25 09:02:11;;;;;;;;;1.33;0.00;;;;;19.02;39.30;101309.97;5106573;27;45468;-69
2022/05/25 09:04:47;;;;;;;;;3.00;0.00;;;;;18.99;39.36;101313.59;5104381;27;45433;-65
2022/05/25 09:07:39;;;;;;;;;0.00;0.00;;;;;19.11;39.27;101318.09;5118376;27;45444;-65
2022/05/25 09:10:06;;;;;;;;;0.33;0.00;;;;;19.04;39.06;101298.25;5098460;27;46241;-65
2022/05/25 09:12:36;;;;;;;;;0.00;0.00;;;;;19.28;38.99;101318.09;5106261;27;45263;-65
2022/05/25 09:15:10;;;;;;;;;0.33;0.00;;;;;19.33;38.12;101311.75;5087141;27;45372;-69
2022/05/25 09:17:47;;;;;;;;;0.67;0.67;;;;;19.52;37.79;101317.19;5124261;27;45309;-65
2022/05/25 09:20:16;;;;;;;;;0.00;0.00;;;;;19.31;37.06;101281.06;5126011;27;45804;-64
2022/05/25 09:22:42;;;;;;;;;0.00;0.00;;;;;19.50;37.07;101317.19;5117149;27;45332;-65
2022/05/25 09:25:12;;;;;;;;;1.67;1.67;;;;;19.39;36.83;101297.31;5105637;27;45422;-69
2022/05/25 09:27:52;;;;;;;;;1.00;1.00;;;;;19.55;36.57;101306.34;5110896;27;45403;-64
2022/05/25 09:30:17;;;;;;;;;0.00;0.00;;;;;19.65;36.58;101310.81;5113813;27;45458;-66
2022/05/25 09:32:51;;;;;;;;;0.00;0.00;;;;;19.73;35.52;101313.50;5101617;27;45543;-64
2022/05/25 09:35:22;;;;;;;;;2.00;0.00;;;;;19.79;35.34;101307.22;5106199;27;46255;-72
2022/05/25 09:38:14;;;;;;;;;0.00;0.00;;;;;19.84;35.56;101310.81;5103670;27;45565;-74
2022/05/25 09:40:45;;;;;;;;;2.00;0.00;;;;;19.89;35.81;101309.88;5107838;27;47029;-71
2022/05/25 09:43:17;;;;;;;;;2.67;2.33;;;;;19.87;35.65;101292.72;5096518;27;45412;-70
2022/05/25 09:45:49;;;;;;;;;1.00;0.00;;;;;19.95;35.40;101291.81;5107799;27;45440;-71
2022/05/25 09:48:26;;;;;;;;;1.33;0.00;;;;;20.09;35.00;101308.91;5103143;27;45491;-71
2022/05/25 09:51:18;;;;;;;;;2.00;1.00;;;;;20.15;35.20;101313.41;5103378;27;46647;-70
2022/05/25 09:53:56;;;;;;;;;4.33;2.67;;;;;20.19;34.94;101320.63;5109378;27;45429;-70
2022/05/25 09:56:42;;;;;;;;;3.67;2.67;;;;;20.04;35.01;101291.75;5127670;27;44983;-71
2022/05/25 09:59:20;;;;;;;;;1.00;1.00;;;;;20.18;34.63;101306.16;5116731;27;45060;-68
2022/05/25 10:01:48;;;;;;;;;1.00;1.00;;;;;20.27;35.02;101321.50;5101903;27;45428;-71
2022/05/25 10:04:51;;;;;;;;;1.00;1.00;;;;;20.32;34.80;101313.34;5098934;27;45444;-67
2022/05/25 10:07:21;;;;;;;;;1.00;1.00;;;;;20.26;34.70;101300.72;5101876;27;45302;-71
2022/05/25 10:09:51;;;;;;;;;1.00;1.00;;;;;20.19;35.04;101280.81;5101248;27;45581;-69
2022/05/25 10:12:24;;;;;;;;;0.00;0.00;;;;;20.39;34.84;101309.66;5104599;27;45342;-72
2022/05/25 10:14:59;;;;;;;;;3.33;2.67;;;;;20.00;35.09;101214.91;5098632;27;45466;-68
2022/05/25 10:17:35;;;;;;;;;0.00;0.00;;;;;20.51;34.82;101320.47;5102316;27;45652;-69
2022/05/25 10:20:03;;;;;;;;;2.00;0.00;;;;;20.39;35.19;101315.09;5107702;27;45658;-68
2022/05/25 10:22:37;;;;;;;;;3.00;1.00;;;;;20.24;35.98;101283.50;5089384;27;47733;-72
2022/05/25 10:25:20;;;;;;;;;1.00;1.00;;;;;20.56;35.21;101331.31;5110584;27;45330;-73
2022/05/25 10:27:47;;;;;;;;;2.00;0.00;;;;;20.56;34.86;101315.03;5099033;27;45271;-69
2022/05/25 10:38:44;;;;;;;;;0.00;0.00;;;;;20.73;34.13;101309.53;5099389;27;45325;-70
2022/05/25 10:44:21;;;;;;;;;0.00;0.00;;;;;20.76;34.97;101310.38;5098438;27;45804;-72
2022/05/25 10:46:54;;;;;;;;;2.00;0.00;;;;;20.84;35.44;101315.78;5091445;27;45453;-72
2022/05/25 10:49:37;;;;;;;;;1.00;1.00;;;;;20.80;35.11;101317.63;5095861;27;45449;-69
2022/05/25 10:52:21;;;;;;;;;0.00;0.00;;;;;20.73;35.10;101274.22;5095796;27;45254;-70
2022/05/25 10:54:50;;;;;;;;;1.00;1.00;;;;;20.87;34.25;101290.41;5108369;27;45445;-70
2022/05/25 10:57:28;;;;;;;;;1.00;1.00;;;;;20.99;34.31;101306.63;5087881;27;45392;-70
2022/05/25 10:59:53;;;;;;;;;3.00;2.00;;;;;20.96;32.60;101312.97;5091835;27;45508;-70
2022/05/25 11:02:42;;;;;;;;;0.00;0.00;;;;;20.85;33.59;101282.25;5115495;27;45519;-67
2022/05/25 11:05:13;;;;;;;;;2.00;0.00;;;;;20.83;33.51;101299.50;5115006;27;46554;-70
2022/05/25 11:07:41;;;;;;;;;0.67;0.67;;;;;20.64;33.79;101269.75;5100767;27;45630;-69
2022/05/25 11:10:37;;;;;;;;;1.00;1.00;;;;;20.85;33.22;101323.00;5096580;27;45596;-71
2022/05/25 11:13:25;;;;;;;;;0.00;0.00;;;;;20.84;33.30;101326.66;5109569;27;45369;-70
2022/05/25 11:16:12;;;;;;;;;0.00;0.00;;;;;20.85;33.66;101324.81;5109416;27;45762;-69
2022/05/25 11:19:03;;;;;;;;;1.00;1.00;;;;;20.85;33.53;101317.56;5115030;27;45485;-69
2022/05/25 11:21:53;;;;;;;;;2.33;2.33;;;;;20.94;34.26;101320.22;5063145;27;45530;-68
2022/05/25 11:24:34;;;;;;;;;2.00;1.00;;;;;20.98;33.58;101302.97;5096857;27;45527;-70
2022/05/25 11:27:27;;;;;;;;;0.00;0.00;;;;;21.02;33.94;101313.81;5104513;27;46223;-68
2022/05/25 11:30:09;;;;;;;;;1.00;1.00;;;;;21.07;34.44;101317.41;5089589;27;45539;-68
2022/05/25 11:32:45;;;;;;;;;1.00;1.00;;;;;21.16;33.95;101320.94;5102449;27;45566;-69
2022/05/25 11:35:41;;;;;;;;;2.00;2.00;;;;;21.12;33.86;101323.72;5079144;27;45658;-69
2022/05/25 11:38:09;;;;;;;;;1.00;0.00;;;;;21.15;33.67;101323.69;5113470;27;46169;-70
2022/05/25 11:41:02;;;;;;;;;1.67;1.67;;;;;21.20;32.95;101323.66;5114645;27;45493;-70
2022/05/25 11:43:30;;;;;;;;;0.00;0.00;;;;;21.25;31.97;101325.44;5105823;27;45284;-70
2022/05/25 11:46:16;;;;;;;;;2.00;1.00;;;;;21.26;32.48;101323.59;5097049;27;45521;-70
2022/05/25 11:49:21;;;;;;;;;0.00;0.00;;;;;20.86;32.75;101250.59;5114572;27;46123;-68
2022/05/25 11:52:24;;;;;;;;;1.33;1.33;;;;;21.27;33.32;101319.97;5110556;27;45358;-71
2022/05/25 11:55:14;;;;;;;;;0.00;0.00;;;;;21.32;33.47;101312.69;5113741;27;45593;-69
2022/05/25 11:57:58;;;;;;;;;0.00;0.00;;;;;21.31;32.59;101311.75;5114960;27;45598;-68
2022/05/25 12:00:42;;;;;;;;;0.00;0.00;;;;;21.30;32.53;101322.63;5106610;27;45399;-69
2022/05/25 12:03:35;;;;;;;;;0.00;0.00;;;;;21.04;33.42;101291.19;5080570;27;45440;-68
2022/05/25 12:06:06;;;;;;;;;0.33;0.33;;;;;20.71;33.21;101236.22;5096707;27;45437;-76
2022/05/25 12:08:50;;;;;;;;;2.00;1.00;;;;;21.20;33.30;101315.50;5114735;27;45271;-69